KBTM/BTM METAR and TAF weather

Enter ICAO airport designator
Station Type Date Time Source
KBTM METAR 2019/02/23 01:53 UTC NOAA

KBTM 230153Z AUTO 00000KT 10SM SCT065 M09/M17 A2978 RMK AO2 SLP195 T10941167


Station Type Date Time Source
KBTM Decoded METAR 2019/02/23 01:53 UTC NOAA

BERT MOONEY AIRPORT, MT, United States (KBTM) 45-58N 112-30W 1688M
Feb 22, 2019 - 08:53 PM EST / 2019.02.23 0153 UTC
Wind: Calm:0
Visibility: 10 mile(s):0
Sky conditions: partly cloudy
Temperature: 15.1 F (-9.4 C)
Dew Point: 1.9 F (-16.7 C)
Relative Humidity: 55%
Pressure (altimeter): 29.78 in. Hg (1008 hPa)
ob: KBTM 230153Z AUTO 00000KT 10SM SCT065 M09/M17 A2978 RMK AO2 SLP195 T10941167
cycle: 2

Station Type Date Time Source
KBTM TAF 2019/02/22 18:39 UTC NOAA

TAF KBTM 221736Z 2218/2318 VRB03KT P6SM SCT150
FM230000 27008KT P6SM OVC070
FM231200 24003KT P6SM VCSH OVC050


Example: see airport list